sensor_id;sensor_type;location;lat;lon;timestamp;pressure;altitude;pressure_sealevel;temperature
13219;BMP180;6674;49.152;11.918;2022-08-11T00:01:12;96593.16;;;20.14
13219;BMP180;6674;49.152;11.918;2022-08-11T00:03:46;96585.31;;;20.14
13219;BMP180;6674;49.152;11.918;2022-08-11T00:06:14;96584.53;;;20.09
13219;BMP180;6674;49.152;11.918;2022-08-11T00:08:42;96585.56;;;20.08
13219;BMP180;6674;49.152;11.918;2022-08-11T00:11:10;96591.31;;;20.05
13219;BMP180;6674;49.152;11.918;2022-08-11T00:13:40;96588.16;;;20.03
13219;BMP180;6674;49.152;11.918;2022-08-11T00:16:11;96586.88;;;20.05
13219;BMP180;6674;49.152;11.918;2022-08-11T00:18:39;96591.31;;;20.05
13219;BMP180;6674;49.152;11.918;2022-08-11T00:21:08;96598.38;;;20.04
13219;BMP180;6674;49.152;11.918;2022-08-11T00:23:40;96598.38;;;20.04
13219;BMP180;6674;49.152;11.918;2022-08-11T00:26:07;96596.03;;;20.03
13219;BMP180;6674;49.152;11.918;2022-08-11T00:28:35;96609.13;;;20.03
13219;BMP180;6674;49.152;11.918;2022-08-11T00:31:06;96605.47;;;20.04
13219;BMP180;6674;49.152;11.918;2022-08-11T00:33:36;96600.22;;;20.04
13219;BMP180;6674;49.152;11.918;2022-08-11T00:36:04;96609.13;;;20.03
13219;BMP180;6674;49.152;11.918;2022-08-11T00:38:34;96608.34;;;20.02
13219;BMP180;6674;49.152;11.918;2022-08-11T00:41:09;96604.66;;;20.03
13219;BMP180;6674;49.152;11.918;2022-08-11T00:44:09;96610.16;;;20.02
13219;BMP180;6674;49.152;11.918;2022-08-11T00:46:47;96609.13;;;20.03
13219;BMP180;6674;49.152;11.918;2022-08-11T00:49:23;96600.75;;;20.06
13219;BMP180;6674;49.152;11.918;2022-08-11T00:52:03;96604.41;;;20.05
13219;BMP180;6674;49.152;11.918;2022-08-11T00:57:52;96604.66;;;20.03
13219;BMP180;6674;49.152;11.918;2022-08-11T01:00:23;96603.63;;;20.04
13219;BMP180;6674;49.152;11.918;2022-08-11T01:03:15;96601.78;;;20.05
13219;BMP180;6674;49.152;11.918;2022-08-11T01:06:01;96598.66;;;20.03
13219;BMP180;6674;49.152;11.918;2022-08-11T01:09:09;96598.66;;;20.03
13219;BMP180;6674;49.152;11.918;2022-08-11T01:12:04;96602.28;;;20.02
13219;BMP180;6674;49.152;11.918;2022-08-11T01:15:06;96602.28;;;20.02
13219;BMP180;6674;49.152;11.918;2022-08-11T01:21:13;96599.66;;;19.97
13219;BMP180;6674;49.152;11.918;2022-08-11T01:24:15;96597.34;;;19.95
13219;BMP180;6674;49.152;11.918;2022-08-11T01:27:12;96594.66;;;19.90
13219;BMP180;6674;49.152;11.918;2022-08-11T01:36:19;96593.84;;;19.80
13219;BMP180;6674;49.152;11.918;2022-08-11T01:39:30;96588.84;;;19.79
13219;BMP180;6674;49.152;11.918;2022-08-11T01:42:10;96592.78;;;19.76
13219;BMP180;6674;49.152;11.918;2022-08-11T01:45:10;96596.69;;;19.74
13219;BMP180;6674;49.152;11.918;2022-08-11T01:47:48;96594.31;;;19.72
13219;BMP180;6674;49.152;11.918;2022-08-11T01:50:36;96590.66;;;19.68
13219;BMP180;6674;49.152;11.918;2022-08-11T01:53:17;96584.63;;;19.68
13219;BMP180;6674;49.152;11.918;2022-08-11T01:55:52;96583.31;;;19.65
13219;BMP180;6674;49.152;11.918;2022-08-11T01:58:30;96584.06;;;19.61
13219;BMP180;6674;49.152;11.918;2022-08-11T02:01:10;96587.19;;;19.58
13219;BMP180;6674;49.152;11.918;2022-08-11T02:03:46;96585.13;;;19.55
13219;BMP180;6674;49.152;11.918;2022-08-11T02:06:21;96582.19;;;19.51
13219;BMP180;6674;49.152;11.918;2022-08-11T02:09:20;96583.75;;;19.47
13219;BMP180;6674;49.152;11.918;2022-08-11T02:11:54;96582.72;;;19.44
13219;BMP180;6674;49.152;11.918;2022-08-11T02:14:27;96580.59;;;19.41
13219;BMP180;6674;49.152;11.918;2022-08-11T02:17:07;96588.94;;;19.38
13219;BMP180;6674;49.152;11.918;2022-08-11T02:19:43;96584.19;;;19.30
13219;BMP180;6674;49.152;11.918;2022-08-11T02:22:38;96577.91;;;19.26
13219;BMP180;6674;49.152;11.918;2022-08-11T02:25:30;96573.72;;;19.25
13219;BMP180;6674;49.152;11.918;2022-08-11T02:28:03;96567.44;;;19.21
13219;BMP180;6674;49.152;11.918;2022-08-11T02:30:37;96573.94;;;19.18
13219;BMP180;6674;49.152;11.918;2022-08-11T02:33:13;96572.88;;;19.14
13219;BMP180;6674;49.152;11.918;2022-08-11T02:35:57;96579.41;;;19.12
13219;BMP180;6674;49.152;11.918;2022-08-11T02:38:32;96573.09;;;19.08
13219;BMP180;6674;49.152;11.918;2022-08-11T02:41:08;96572.53;;;19.01
13219;BMP180;6674;49.152;11.918;2022-08-11T02:44:07;96564.56;;;18.86
13219;BMP180;6674;49.152;11.918;2022-08-11T02:46:44;96561.69;;;18.88
13219;BMP180;6674;49.152;11.918;2022-08-11T02:49:18;96568.00;;;18.92
13219;BMP180;6674;49.152;11.918;2022-08-11T02:52:22;96565.13;;;18.93
13219;BMP180;6674;49.152;11.918;2022-08-11T02:54:55;96571.94;;;18.94
13219;BMP180;6674;49.152;11.918;2022-08-11T02:57:33;96582.59;;;18.88
13219;BMP180;6674;49.152;11.918;2022-08-11T03:00:07;96582.31;;;18.84
13219;BMP180;6674;49.152;11.918;2022-08-11T03:02:46;96566.38;;;18.81
13219;BMP180;6674;49.152;11.918;2022-08-11T03:05:23;96572.84;;;18.73
13219;BMP180;6674;49.152;11.918;2022-08-11T03:08:05;96569.16;;;18.69
13219;BMP180;6674;49.152;11.918;2022-08-11T03:10:42;96567.28;;;18.65
13219;BMP180;6674;49.152;11.918;2022-08-11T03:13:38;96582.16;;;18.59
13219;BMP180;6674;49.152;11.918;2022-08-11T03:16:28;96572.94;;;18.52
13219;BMP180;6674;49.152;11.918;2022-08-11T03:19:20;96561.06;;;18.35
13219;BMP180;6674;49.152;11.918;2022-08-11T03:21:58;96569.97;;;18.39
13219;BMP180;6674;49.152;11.918;2022-08-11T03:24:32;96576.19;;;18.38
13219;BMP180;6674;49.152;11.918;2022-08-11T03:27:06;96578.28;;;18.36
13219;BMP180;6674;49.152;11.918;2022-08-11T03:29:41;96580.06;;;18.30
13219;BMP180;6674;49.152;11.918;2022-08-11T03:32:20;96587.00;;;18.20
13219;BMP180;6674;49.152;11.918;2022-08-11T03:34:51;96581.38;;;18.07
13219;BMP180;6674;49.152;11.918;2022-08-11T03:37:29;96581.41;;;17.85
13219;BMP180;6674;49.152;11.918;2022-08-11T03:40:24;96581.19;;;17.87
13219;BMP180;6674;49.152;11.918;2022-08-11T03:43:23;96582.19;;;17.86
13219;BMP180;6674;49.152;11.918;2022-08-11T03:46:02;96580.59;;;17.80
13219;BMP180;6674;49.152;11.918;2022-08-11T03:48:40;96572.75;;;17.80
13219;BMP180;6674;49.152;11.918;2022-08-11T03:51:16;96579.28;;;17.82
13219;BMP180;6674;49.152;11.918;2022-08-11T03:53:53;96570.69;;;17.82
13219;BMP180;6674;49.152;11.918;2022-08-11T03:56:56;96585.56;;;17.81
13219;BMP180;6674;49.152;11.918;2022-08-11T04:02:48;96575.13;;;17.81
13219;BMP180;6674;49.152;11.918;2022-08-11T04:05:34;96589.97;;;17.81
13219;BMP180;6674;49.152;11.918;2022-08-11T04:08:32;96576.94;;;17.81
13219;BMP180;6674;49.152;11.918;2022-08-11T04:11:16;96576.75;;;17.66
13219;BMP180;6674;49.152;11.918;2022-08-11T04:17:50;96571.84;;;17.70
13219;BMP180;6674;49.152;11.918;2022-08-11T04:23:46;96581.09;;;17.56
13219;BMP180;6674;49.152;11.918;2022-08-11T04:26:47;96575.69;;;17.62
13219;BMP180;6674;49.152;11.918;2022-08-11T04:29:31;96579.03;;;17.58
13219;BMP180;6674;49.152;11.918;2022-08-11T04:32:13;96583.16;;;17.54
13219;BMP180;6674;49.152;11.918;2022-08-11T04:35:01;96573.25;;;17.56
13219;BMP180;6674;49.152;11.918;2022-08-11T04:37:40;96579.03;;;17.58
13219;BMP180;6674;49.152;11.918;2022-08-11T04:40:23;96573.81;;;17.58
13219;BMP180;6674;49.152;11.918;2022-08-11T04:49:27;96585.81;;;17.59
13219;BMP180;6674;49.152;11.918;2022-08-11T04:52:44;96583.47;;;17.57
13219;BMP180;6674;49.152;11.918;2022-08-11T04:55:55;96596.75;;;17.56
13219;BMP180;6674;49.152;11.918;2022-08-11T04:58:54;96594.84;;;17.51
13219;BMP180;6674;49.152;11.918;2022-08-11T05:01:55;96593.88;;;17.57
13219;BMP180;6674;49.152;11.918;2022-08-11T05:04:54;96600.66;;;17.58
13219;BMP180;6674;49.152;11.918;2022-08-11T05:10:56;96606.19;;;17.62
13219;BMP180;6674;49.152;11.918;2022-08-11T05:13:27;96613.78;;;17.63
13219;BMP180;6674;49.152;11.918;2022-08-11T05:16:14;96618.56;;;17.71
13219;BMP180;6674;49.152;11.918;2022-08-11T05:19:02;96622.03;;;17.76
13219;BMP180;6674;49.152;11.918;2022-08-11T05:21:52;96606.44;;;17.81
13219;BMP180;6674;49.152;11.918;2022-08-11T05:24:40;96607.28;;;17.87
13219;BMP180;6674;49.152;11.918;2022-08-11T05:27:32;96607.81;;;17.89
13219;BMP180;6674;49.152;11.918;2022-08-11T05:30:19;96612.84;;;17.95
13219;BMP180;6674;49.152;11.918;2022-08-11T05:33:11;96607.44;;;18.02
13219;BMP180;6674;49.152;11.918;2022-08-11T05:36:02;96608.25;;;18.07
13219;BMP180;6674;49.152;11.918;2022-08-11T05:38:34;96604.72;;;18.13
13219;BMP180;6674;49.152;11.918;2022-08-11T05:41:21;96603.50;;;18.20
13219;BMP180;6674;49.152;11.918;2022-08-11T05:44:09;96605.91;;;18.27
13219;BMP180;6674;49.152;11.918;2022-08-11T05:46:54;96602.00;;;18.29
13219;BMP180;6674;49.152;11.918;2022-08-11T05:49:38;96609.09;;;18.34
13219;BMP180;6674;49.152;11.918;2022-08-11T05:52:26;96612.81;;;18.43
13219;BMP180;6674;49.152;11.918;2022-08-11T05:55:12;96608.97;;;18.50
13219;BMP180;6674;49.152;11.918;2022-08-11T05:58:01;96602.22;;;18.54
13219;BMP180;6674;49.152;11.918;2022-08-11T06:00:30;96598.91;;;18.63
13219;BMP180;6674;49.152;11.918;2022-08-11T06:03:00;96609.13;;;18.70
13219;BMP180;6674;49.152;11.918;2022-08-11T06:05:32;96611.53;;;18.76
13219;BMP180;6674;49.152;11.918;2022-08-11T06:08:00;96607.94;;;18.82
13219;BMP180;6674;49.152;11.918;2022-08-11T06:10:30;96608.75;;;18.88
13219;BMP180;6674;49.152;11.918;2022-08-11T06:12:59;96604.63;;;18.92
13219;BMP180;6674;49.152;11.918;2022-08-11T06:15:27;96605.41;;;18.92
13219;BMP180;6674;49.152;11.918;2022-08-11T06:17:58;96613.88;;;19.04
13219;BMP180;6674;49.152;11.918;2022-08-11T06:20:26;96612.03;;;19.04
13219;BMP180;6674;49.152;11.918;2022-08-11T06:23:01;96614.97;;;19.13
13219;BMP180;6674;49.152;11.918;2022-08-11T06:25:29;96611.09;;;19.20
13219;BMP180;6674;49.152;11.918;2022-08-11T06:27:57;96616.13;;;19.32
13219;BMP180;6674;49.152;11.918;2022-08-11T06:30:33;96605.19;;;19.40
13219;BMP180;6674;49.152;11.918;2022-08-11T06:33:07;96606.53;;;19.47
13219;BMP180;6674;49.152;11.918;2022-08-11T06:35:43;96605.28;;;19.59
13219;BMP180;6674;49.152;11.918;2022-08-11T06:38:14;96612.66;;;19.72
13219;BMP180;6674;49.152;11.918;2022-08-11T06:40:49;96604.81;;;19.77
13219;BMP180;6674;49.152;11.918;2022-08-11T06:43:37;96605.69;;;19.88
13219;BMP180;6674;49.152;11.918;2022-08-11T06:46:10;96606.72;;;19.91
13219;BMP180;6674;49.152;11.918;2022-08-11T06:48:41;96615.94;;;20.04
13219;BMP180;6674;49.152;11.918;2022-08-11T06:51:09;96614.91;;;20.20
13219;BMP180;6674;49.152;11.918;2022-08-11T06:53:43;96612.84;;;20.27
13219;BMP180;6674;49.152;11.918;2022-08-11T06:56:10;96610.50;;;20.30
13219;BMP180;6674;49.152;11.918;2022-08-11T06:58:56;96609.19;;;20.37
13219;BMP180;6674;49.152;11.918;2022-08-11T07:01:53;96611.28;;;20.50
13219;BMP180;6674;49.152;11.918;2022-08-11T07:04:28;96594.00;;;20.59
13219;BMP180;6674;49.152;11.918;2022-08-11T07:07:08;96605.56;;;20.78
13219;BMP180;6674;49.152;11.918;2022-08-11T07:10:25;96604.25;;;20.90
13219;BMP180;6674;49.152;11.918;2022-08-11T07:13:13;96596.88;;;21.02
13219;BMP180;6674;49.152;11.918;2022-08-11T07:15:59;96602.91;;;21.18
13219;BMP180;6674;49.152;11.918;2022-08-11T07:18:27;96604.44;;;21.23
13219;BMP180;6674;49.152;11.918;2022-08-11T07:21:16;96601.03;;;21.33
13219;BMP180;6674;49.152;11.918;2022-08-11T07:24:07;96602.34;;;21.45
13219;BMP180;6674;49.152;11.918;2022-08-11T07:26:54;96591.84;;;21.45
13219;BMP180;6674;49.152;11.918;2022-08-11T07:29:41;96604.41;;;21.58
13219;BMP180;6674;49.152;11.918;2022-08-11T07:32:14;96599.09;;;21.68
13219;BMP180;6674;49.152;11.918;2022-08-11T07:34:46;96594.59;;;21.78
13219;BMP180;6674;49.152;11.918;2022-08-11T07:37:16;96599.56;;;21.85
13219;BMP180;6674;49.152;11.918;2022-08-11T07:39:47;96592.41;;;22.00
13219;BMP180;6674;49.152;11.918;2022-08-11T07:42:17;96595.72;;;22.15
13219;BMP180;6674;49.152;11.918;2022-08-11T07:44:46;96598.28;;;22.30
13219;BMP180;6674;49.152;11.918;2022-08-11T07:47:31;96600.75;;;22.50
13219;BMP180;6674;49.152;11.918;2022-08-11T07:50:18;96596.97;;;22.66
13219;BMP180;6674;49.152;11.918;2022-08-11T07:53:04;96599.19;;;22.82
13219;BMP180;6674;49.152;11.918;2022-08-11T07:55:31;96600.72;;;22.88
13219;BMP180;6674;49.152;11.918;2022-08-11T07:57:59;96595.84;;;23.05
13219;BMP180;6674;49.152;11.918;2022-08-11T08:00:45;96591.81;;;23.17
13219;BMP180;6674;49.152;11.918;2022-08-11T08:03:30;96586.94;;;23.29
13219;BMP180;6674;49.152;11.918;2022-08-11T08:06:15;96593.34;;;23.46
13219;BMP180;6674;49.152;11.918;2022-08-11T08:09:01;96590.31;;;23.58
13219;BMP180;6674;49.152;11.918;2022-08-11T08:11:45;96598.13;;;23.68
13219;BMP180;6674;49.152;11.918;2022-08-11T08:14:30;96587.19;;;23.79
13219;BMP180;6674;49.152;11.918;2022-08-11T08:17:15;96594.09;;;23.93
13219;BMP180;6674;49.152;11.918;2022-08-11T08:20:00;96587.13;;;24.02
13219;BMP180;6674;49.152;11.918;2022-08-11T08:22:28;96598.53;;;24.16
13219;BMP180;6674;49.152;11.918;2022-08-11T08:24:57;96581.44;;;23.95
13219;BMP180;6674;49.152;11.918;2022-08-11T08:27:24;96577.66;;;24.01
13219;BMP180;6674;49.152;11.918;2022-08-11T08:29:52;96575.66;;;24.12
13219;BMP180;6674;49.152;11.918;2022-08-11T08:32:38;96573.88;;;24.07
13219;BMP180;6674;49.152;11.918;2022-08-11T08:35:06;96578.22;;;24.17
13219;BMP180;6674;49.152;11.918;2022-08-11T08:37:33;96591.28;;;24.45
13219;BMP180;6674;49.152;11.918;2022-08-11T08:40:02;96578.09;;;24.63
13219;BMP180;6674;49.152;11.918;2022-08-11T08:42:31;96572.91;;;24.58
13219;BMP180;6674;49.152;11.918;2022-08-11T08:45:04;96579.78;;;24.54
13219;BMP180;6674;49.152;11.918;2022-08-11T08:47:34;96576.97;;;24.82
13219;BMP180;6674;49.152;11.918;2022-08-11T08:50:05;96569.94;;;24.91
13219;BMP180;6674;49.152;11.918;2022-08-11T08:52:36;96574.13;;;25.11
13219;BMP180;6674;49.152;11.918;2022-08-11T08:55:08;96567.13;;;25.33
13219;BMP180;6674;49.152;11.918;2022-08-11T08:57:38;96570.72;;;25.50
13219;BMP180;6674;49.152;11.918;2022-08-11T09:00:07;96572.78;;;25.40
13219;BMP180;6674;49.152;11.918;2022-08-11T09:02:35;96562.91;;;25.45
13219;BMP180;6674;49.152;11.918;2022-08-11T09:05:03;96558.41;;;25.59
13219;BMP180;6674;49.152;11.918;2022-08-11T09:07:30;96557.94;;;25.70
13219;BMP180;6674;49.152;11.918;2022-08-11T09:09:58;96558.50;;;25.81
13219;BMP180;6674;49.152;11.918;2022-08-11T09:12:28;96559.19;;;25.86
13219;BMP180;6674;49.152;11.918;2022-08-11T09:14:56;96557.41;;;25.95
13219;BMP180;6674;49.152;11.918;2022-08-11T09:17:33;96556.75;;;25.90
13219;BMP180;6674;49.152;11.918;2022-08-11T09:20:03;96546.53;;;25.97
13219;BMP180;6674;49.152;11.918;2022-08-11T09:22:33;96548.13;;;25.98
13219;BMP180;6674;49.152;11.918;2022-08-11T09:25:18;96554.81;;;26.30
13219;BMP180;6674;49.152;11.918;2022-08-11T09:28:01;96552.53;;;26.37
13219;BMP180;6674;49.152;11.918;2022-08-11T09:30:30;96547.59;;;26.44
13219;BMP180;6674;49.152;11.918;2022-08-11T09:32:58;96546.75;;;26.35
13219;BMP180;6674;49.152;11.918;2022-08-11T09:35:26;96552.41;;;26.42
13219;BMP180;6674;49.152;11.918;2022-08-11T09:37:53;96547.00;;;26.47
13219;BMP180;6674;49.152;11.918;2022-08-11T09:40:40;96537.91;;;26.61
13219;BMP180;6674;49.152;11.918;2022-08-11T09:43:11;96538.38;;;26.85
13219;BMP180;6674;49.152;11.918;2022-08-11T09:45:57;96547.38;;;27.06
13219;BMP180;6674;49.152;11.918;2022-08-11T09:48:26;96539.88;;;26.99
13219;BMP180;6674;49.152;11.918;2022-08-11T09:50:55;96531.13;;;27.21
13219;BMP180;6674;49.152;11.918;2022-08-11T09:53:23;96535.88;;;27.10
13219;BMP180;6674;49.152;11.918;2022-08-11T09:55:51;96529.81;;;27.10
13219;BMP180;6674;49.152;11.918;2022-08-11T09:58:19;96526.00;;;27.33
13219;BMP180;6674;49.152;11.918;2022-08-11T10:00:48;96530.19;;;27.34
13219;BMP180;6674;49.152;11.918;2022-08-11T10:03:17;96525.25;;;27.40
13219;BMP180;6674;49.152;11.918;2022-08-11T10:05:46;96532.72;;;27.38
13219;BMP180;6674;49.152;11.918;2022-08-11T10:08:31;96523.50;;;27.66
13219;BMP180;6674;49.152;11.918;2022-08-11T10:11:00;96512.69;;;27.54
13219;BMP180;6674;49.152;11.918;2022-08-11T10:13:31;96517.53;;;27.52
13219;BMP180;6674;49.152;11.918;2022-08-11T10:16:21;96512.91;;;27.83
13219;BMP180;6674;49.152;11.918;2022-08-11T10:18:49;96514.63;;;27.87
13219;BMP180;6674;49.152;11.918;2022-08-11T10:21:29;96521.97;;;27.99
13219;BMP180;6674;49.152;11.918;2022-08-11T10:23:59;96507.97;;;28.32
13219;BMP180;6674;49.152;11.918;2022-08-11T10:26:45;96508.88;;;28.61
13219;BMP180;6674;49.152;11.918;2022-08-11T10:29:29;96500.25;;;28.81
13219;BMP180;6674;49.152;11.918;2022-08-11T10:32:18;96499.69;;;29.13
13219;BMP180;6674;49.152;11.918;2022-08-11T10:35:04;96503.72;;;29.18
13219;BMP180;6674;49.152;11.918;2022-08-11T10:37:35;96491.28;;;29.11
13219;BMP180;6674;49.152;11.918;2022-08-11T10:40:05;96493.25;;;29.30
13219;BMP180;6674;49.152;11.918;2022-08-11T10:42:33;96496.69;;;29.51
13219;BMP180;6674;49.152;11.918;2022-08-11T10:45:21;96481.75;;;29.67
13219;BMP180;6674;49.152;11.918;2022-08-11T10:48:06;96470.03;;;29.68
13219;BMP180;6674;49.152;11.918;2022-08-11T10:50:35;96492.00;;;29.85
13219;BMP180;6674;49.152;11.918;2022-08-11T10:53:20;96476.09;;;29.48
13219;BMP180;6674;49.152;11.918;2022-08-11T10:56:05;96480.72;;;29.59
13219;BMP180;6674;49.152;11.918;2022-08-11T10:58:51;96488.19;;;29.66
13219;BMP180;6674;49.152;11.918;2022-08-11T11:01:22;96474.84;;;29.95
13219;BMP180;6674;49.152;11.918;2022-08-11T11:03:51;96482.66;;;30.00
13219;BMP180;6674;49.152;11.918;2022-08-11T11:06:24;96490.59;;;30.08
13219;BMP180;6674;49.152;11.918;2022-08-11T11:08:57;96482.78;;;30.23
13219;BMP180;6674;49.152;11.918;2022-08-11T11:11:27;96471.25;;;30.19
13219;BMP180;6674;49.152;11.918;2022-08-11T11:14:09;96465.06;;;30.07
13219;BMP180;6674;49.152;11.918;2022-08-11T11:16:57;96464.22;;;30.35
13219;BMP180;6674;49.152;11.918;2022-08-11T11:19:42;96465.34;;;30.34
13219;BMP180;6674;49.152;11.918;2022-08-11T11:22:11;96467.03;;;30.30
13219;BMP180;6674;49.152;11.918;2022-08-11T11:25:03;96457.59;;;30.41
13219;BMP180;6674;49.152;11.918;2022-08-11T11:27:39;96465.13;;;30.39
13219;BMP180;6674;49.152;11.918;2022-08-11T11:30:12;96455.19;;;30.07
13219;BMP180;6674;49.152;11.918;2022-08-11T11:32:48;96466.53;;;30.37
13219;BMP180;6674;49.152;11.918;2022-08-11T11:35:25;96454.88;;;30.29
13219;BMP180;6674;49.152;11.918;2022-08-11T11:37:56;96451.25;;;30.13
13219;BMP180;6674;49.152;11.918;2022-08-11T11:40:26;96447.34;;;30.11
13219;BMP180;6674;49.152;11.918;2022-08-11T11:42:55;96450.28;;;30.50
13219;BMP180;6674;49.152;11.918;2022-08-11T11:45:23;96442.25;;;30.82
13219;BMP180;6674;49.152;11.918;2022-08-11T11:47:53;96450.06;;;30.87
13219;BMP180;6674;49.152;11.918;2022-08-11T11:50:24;96434.88;;;30.88
13219;BMP180;6674;49.152;11.918;2022-08-11T11:52:52;96446.19;;;30.96
13219;BMP180;6674;49.152;11.918;2022-08-11T11:55:21;96449.69;;;30.65
13219;BMP180;6674;49.152;11.918;2022-08-11T11:57:51;96450.75;;;30.52
13219;BMP180;6674;49.152;11.918;2022-08-11T12:00:38;96443.97;;;30.87
13219;BMP180;6674;49.152;11.918;2022-08-11T12:03:27;96441.09;;;31.15
13219;BMP180;6674;49.152;11.918;2022-08-11T12:05:55;96443.09;;;31.30
13219;BMP180;6674;49.152;11.918;2022-08-11T12:08:23;96438.44;;;31.51
13219;BMP180;6674;49.152;11.918;2022-08-11T12:10:51;96435.78;;;31.39
13219;BMP180;6674;49.152;11.918;2022-08-11T12:13:42;96431.66;;;31.18
13219;BMP180;6674;49.152;11.918;2022-08-11T12:16:09;96431.09;;;30.89
13219;BMP180;6674;49.152;11.918;2022-08-11T12:18:38;96418.19;;;30.90
13219;BMP180;6674;49.152;11.918;2022-08-11T12:21:07;96419.53;;;31.08
13219;BMP180;6674;49.152;11.918;2022-08-11T12:23:37;96416.34;;;30.91
13219;BMP180;6674;49.152;11.918;2022-08-11T12:26:23;96416.44;;;31.06
13219;BMP180;6674;49.152;11.918;2022-08-11T12:29:20;96422.34;;;31.24
13219;BMP180;6674;49.152;11.918;2022-08-11T12:31:52;96413.31;;;31.52
13219;BMP180;6674;49.152;11.918;2022-08-11T12:34:20;96413.03;;;31.80
13219;BMP180;6674;49.152;11.918;2022-08-11T12:36:51;96416.66;;;31.61
13219;BMP180;6674;49.152;11.918;2022-08-11T12:39:21;96408.22;;;30.99
13219;BMP180;6674;49.152;11.918;2022-08-11T12:42:10;96414.16;;;30.61
13219;BMP180;6674;49.152;11.918;2022-08-11T12:44:56;96407.72;;;30.74
13219;BMP180;6674;49.152;11.918;2022-08-11T12:47:43;96411.31;;;31.13
13219;BMP180;6674;49.152;11.918;2022-08-11T12:50:27;96414.22;;;31.56
13219;BMP180;6674;49.152;11.918;2022-08-11T12:53:11;96404.59;;;31.90
13219;BMP180;6674;49.152;11.918;2022-08-11T12:55:40;96409.69;;;31.95
13219;BMP180;6674;49.152;11.918;2022-08-11T12:58:26;96403.91;;;31.93
13219;BMP180;6674;49.152;11.918;2022-08-11T13:00:55;96400.13;;;32.22
13219;BMP180;6674;49.152;11.918;2022-08-11T13:03:40;96399.34;;;32.21
13219;BMP180;6674;49.152;11.918;2022-08-11T13:06:27;96393.34;;;31.85
13219;BMP180;6674;49.152;11.918;2022-08-11T13:08:57;96387.66;;;31.59
13219;BMP180;6674;49.152;11.918;2022-08-11T13:11:24;96386.03;;;31.07
13219;BMP180;6674;49.152;11.918;2022-08-11T13:14:10;96371.56;;;31.32
13219;BMP180;6674;49.152;11.918;2022-08-11T13:16:37;96378.16;;;31.74
13219;BMP180;6674;49.152;11.918;2022-08-11T13:19:18;96380.19;;;31.65
13219;BMP180;6674;49.152;11.918;2022-08-11T13:21:48;96375.38;;;31.07
13219;BMP180;6674;49.152;11.918;2022-08-11T13:24:15;96360.56;;;31.33
13219;BMP180;6674;49.152;11.918;2022-08-11T13:26:44;96361.94;;;31.67
13219;BMP180;6674;49.152;11.918;2022-08-11T13:29:11;96367.03;;;31.72
13219;BMP180;6674;49.152;11.918;2022-08-11T13:31:40;96375.19;;;32.02
13219;BMP180;6674;49.152;11.918;2022-08-11T13:34:08;96360.03;;;32.06
13219;BMP180;6674;49.152;11.918;2022-08-11T13:36:35;96364.81;;;32.13
13219;BMP180;6674;49.152;11.918;2022-08-11T13:39:04;96361.66;;;31.95
13219;BMP180;6674;49.152;11.918;2022-08-11T13:41:31;96365.66;;;31.89
13219;BMP180;6674;49.152;11.918;2022-08-11T13:44:04;96358.41;;;32.02
13219;BMP180;6674;49.152;11.918;2022-08-11T13:46:32;96355.31;;;31.49
13219;BMP180;6674;49.152;11.918;2022-08-11T13:48:59;96358.75;;;31.61
13219;BMP180;6674;49.152;11.918;2022-08-11T13:51:27;96351.97;;;31.64
13219;BMP180;6674;49.152;11.918;2022-08-11T13:54:00;96354.06;;;31.58
13219;BMP180;6674;49.152;11.918;2022-08-11T13:56:29;96346.13;;;31.34
13219;BMP180;6674;49.152;11.918;2022-08-11T13:58:57;96350.44;;;31.51
13219;BMP180;6674;49.152;11.918;2022-08-11T14:01:27;96349.06;;;31.57
13219;BMP180;6674;49.152;11.918;2022-08-11T14:03:58;96341.34;;;31.40
13219;BMP180;6674;49.152;11.918;2022-08-11T14:06:29;96340.88;;;31.50
13219;BMP180;6674;49.152;11.918;2022-08-11T14:08:56;96347.56;;;31.44
13219;BMP180;6674;49.152;11.918;2022-08-11T14:11:24;96339.78;;;31.39
13219;BMP180;6674;49.152;11.918;2022-08-11T14:14:14;96334.97;;;31.05
13219;BMP180;6674;49.152;11.918;2022-08-11T14:16:45;96331.59;;;31.20
13219;BMP180;6674;49.152;11.918;2022-08-11T14:19:13;96329.84;;;31.12
13219;BMP180;6674;49.152;11.918;2022-08-11T14:21:43;96326.25;;;30.73
13219;BMP180;6674;49.152;11.918;2022-08-11T14:24:28;96318.75;;;30.98
13219;BMP180;6674;49.152;11.918;2022-08-11T14:26:55;96330.50;;;30.86
13219;BMP180;6674;49.152;11.918;2022-08-11T14:29:25;96328.28;;;30.64
13219;BMP180;6674;49.152;11.918;2022-08-11T14:31:54;96321.81;;;30.41
13219;BMP180;6674;49.152;11.918;2022-08-11T14:34:23;96323.59;;;30.37
13219;BMP180;6674;49.152;11.918;2022-08-11T14:36:52;96322.06;;;30.60
13219;BMP180;6674;49.152;11.918;2022-08-11T14:39:22;96319.72;;;30.70
13219;BMP180;6674;49.152;11.918;2022-08-11T14:41:54;96323.06;;;30.67
13219;BMP180;6674;49.152;11.918;2022-08-11T14:44:45;96328.84;;;30.81
13219;BMP180;6674;49.152;11.918;2022-08-11T14:47:32;96325.50;;;30.84
13219;BMP180;6674;49.152;11.918;2022-08-11T14:50:01;96331.84;;;30.80
13219;BMP180;6674;49.152;11.918;2022-08-11T14:52:31;96316.53;;;30.89
13219;BMP180;6674;49.152;11.918;2022-08-11T14:55:00;96328.50;;;30.71
13219;BMP180;6674;49.152;11.918;2022-08-11T14:57:46;96309.41;;;30.57
13219;BMP180;6674;49.152;11.918;2022-08-11T15:00:15;96326.50;;;30.56
13219;BMP180;6674;49.152;11.918;2022-08-11T15:02:45;96322.72;;;30.57
13219;BMP180;6674;49.152;11.918;2022-08-11T15:05:30;96316.72;;;30.36
13219;BMP180;6674;49.152;11.918;2022-08-11T15:07:58;96321.84;;;30.21
13219;BMP180;6674;49.152;11.918;2022-08-11T15:10:25;96319.03;;;30.38
13219;BMP180;6674;49.152;11.918;2022-08-11T15:12:53;96319.50;;;30.51
13219;BMP180;6674;49.152;11.918;2022-08-11T15:15:24;96317.63;;;30.52
13219;BMP180;6674;49.152;11.918;2022-08-11T15:18:11;96318.50;;;30.68
13219;BMP180;6674;49.152;11.918;2022-08-11T15:20:40;96317.50;;;30.04
13219;BMP180;6674;49.152;11.918;2022-08-11T15:23:24;96322.44;;;30.26
13219;BMP180;6674;49.152;11.918;2022-08-11T15:26:12;96312.03;;;30.33
13219;BMP180;6674;49.152;11.918;2022-08-11T15:28:48;96312.56;;;30.27
13219;BMP180;6674;49.152;11.918;2022-08-11T15:31:35;96315.31;;;30.18
13219;BMP180;6674;49.152;11.918;2022-08-11T15:34:23;96317.59;;;29.96
13219;BMP180;6674;49.152;11.918;2022-08-11T15:37:10;96310.78;;;29.87
13219;BMP180;6674;49.152;11.918;2022-08-11T15:40:00;96305.22;;;29.80
13219;BMP180;6674;49.152;11.918;2022-08-11T15:42:50;96297.13;;;29.76